createdAt,value
2023-11-11T00:00:37.854Z,5.85
2023-11-11T00:03:08.733Z,6.43
2023-11-11T00:05:36.446Z,6.72
2023-11-11T00:08:04.342Z,6.00
2023-11-11T00:10:32.686Z,6.32
2023-11-11T00:13:00.580Z,5.47
2023-11-11T00:15:28.446Z,5.12
2023-11-11T00:17:56.527Z,7.60
2023-11-11T00:20:24.282Z,7.40
2023-11-11T00:22:53.285Z,5.78
2023-11-11T00:25:24.059Z,7.25
2023-11-11T00:27:52.991Z,5.35
2023-11-11T00:30:21.120Z,6.10
2023-11-11T00:32:52.212Z,5.87
2023-11-11T00:35:20.208Z,5.32
2023-11-11T00:37:48.099Z,6.28
2023-11-11T00:40:15.847Z,6.70
2023-11-11T00:42:43.745Z,6.30
2023-11-11T00:45:11.963Z,6.93
2023-11-11T00:47:39.823Z,7.10
2023-11-11T00:50:10.545Z,7.40
2023-11-11T00:52:38.940Z,7.82
2023-11-11T00:55:08.906Z,7.78
2023-11-11T00:57:36.771Z,8.23
2023-11-11T01:00:05.209Z,7.68
2023-11-11T01:02:34.149Z,9.02
2023-11-11T01:05:01.799Z,8.60
2023-11-11T01:07:30.053Z,7.85
2023-11-11T01:09:57.933Z,6.93
2023-11-11T01:12:25.541Z,11.20
2023-11-11T01:14:53.633Z,7.20
2023-11-11T01:17:21.408Z,6.45
2023-11-11T01:19:48.944Z,7.18
2023-11-11T01:22:20.312Z,6.03
2023-11-11T01:24:47.890Z,6.87
2023-11-11T01:27:15.491Z,6.90
2023-11-11T01:29:44.299Z,6.93
2023-11-11T01:32:11.892Z,8.50
2023-11-11T01:34:39.739Z,8.07
2023-11-11T01:37:09.427Z,9.35
2023-11-11T01:39:37.547Z,9.98
2023-11-11T01:42:06.451Z,8.23
2023-11-11T01:44:37.575Z,8.30
2023-11-11T01:47:08.987Z,9.70
2023-11-11T01:49:37.967Z,8.32
2023-11-11T01:52:08.050Z,8.00
2023-11-11T01:54:36.506Z,9.55
2023-11-11T01:57:07.408Z,7.45
2023-11-11T01:59:36.443Z,8.20
2023-11-11T02:02:04.990Z,7.35
2023-11-11T02:04:33.337Z,7.75
2023-11-11T02:07:01.523Z,9.00
2023-11-11T02:09:29.465Z,7.75
2023-11-11T02:11:58.810Z,8.63
2023-11-11T02:14:27.051Z,8.32
2023-11-11T02:16:54.652Z,8.43
2023-11-11T02:19:25.432Z,10.75
2023-11-11T02:21:53.334Z,9.90
2023-11-11T02:24:22.682Z,15.83
2023-11-11T02:26:51.201Z,12.35
2023-11-11T02:29:19.008Z,14.23
2023-11-11T02:31:46.500Z,13.10
2023-11-11T02:34:14.644Z,14.55
2023-11-11T02:36:51.306Z,13.47
2023-11-11T02:39:26.692Z,16.27
2023-11-11T02:41:54.242Z,14.02
2023-11-11T02:44:21.863Z,12.90
2023-11-11T02:46:49.949Z,15.00
2023-11-11T02:49:18.714Z,14.73
2023-11-11T02:51:46.298Z,14.95
2023-11-11T02:54:14.238Z,12.07
2023-11-11T02:56:41.995Z,12.60
2023-11-11T02:59:10.155Z,11.30
2023-11-11T03:01:38.565Z,11.57
2023-11-11T03:04:06.548Z,10.55
2023-11-11T03:06:34.837Z,10.55
2023-11-11T03:09:04.757Z,11.80
2023-11-11T03:11:33.492Z,11.73
2023-11-11T03:14:02.339Z,10.53
2023-11-11T03:16:40.812Z,11.52
2023-11-11T03:19:08.652Z,9.85
2023-11-11T03:21:36.897Z,8.65
2023-11-11T03:24:05.901Z,14.85
2023-11-11T03:26:33.701Z,8.57
2023-11-11T03:29:02.130Z,10.88
2023-11-11T03:31:32.718Z,12.40
2023-11-11T03:34:01.168Z,9.48
2023-11-11T03:36:29.644Z,11.05
2023-11-11T03:38:57.278Z,13.37
2023-11-11T03:41:24.736Z,9.68
2023-11-11T03:43:52.990Z,8.10
2023-11-11T03:46:20.915Z,7.78
2023-11-11T03:48:50.049Z,7.03
2023-11-11T03:51:18.139Z,6.83
2023-11-11T03:53:45.621Z,6.80
2023-11-11T03:56:13.895Z,7.37
2023-11-11T03:58:42.284Z,8.15
2023-11-11T04:01:10.675Z,9.95
2023-11-11T04:03:40.809Z,8.63
2023-11-11T04:06:10.905Z,9.55
2023-11-11T04:08:40.758Z,9.65
2023-11-11T04:11:09.236Z,8.95
2023-11-11T04:13:41.347Z,10.57
2023-11-11T04:16:11.131Z,10.60
2023-11-11T04:18:39.408Z,11.57
2023-11-11T04:21:13.002Z,13.15
2023-11-11T04:23:43.666Z,10.73
2023-11-11T04:26:11.435Z,13.32
2023-11-11T04:28:44.063Z,12.13
2023-11-11T04:31:18.510Z,12.85
2023-11-11T04:33:46.338Z,12.88
2023-11-11T04:36:15.557Z,14.73
2023-11-11T04:38:43.539Z,17.48
2023-11-11T04:41:12.733Z,16.20
2023-11-11T04:43:40.581Z,15.60
2023-11-11T04:46:08.552Z,19.08
2023-11-11T04:48:36.333Z,14.45
2023-11-11T04:51:04.489Z,15.43
2023-11-11T04:53:32.093Z,17.23
2023-11-11T04:55:59.800Z,15.48
2023-11-11T04:58:29.461Z,15.48
2023-11-11T05:00:57.023Z,16.58
2023-11-11T05:03:24.637Z,16.30
2023-11-11T05:05:52.467Z,23.53
2023-11-11T05:08:20.220Z,17.15
2023-11-11T05:10:48.011Z,18.77
2023-11-11T05:13:21.246Z,16.90
2023-11-11T05:16:00.290Z,15.73
2023-11-11T05:18:28.588Z,15.10
2023-11-11T05:20:56.646Z,14.60
2023-11-11T05:23:24.960Z,15.65
2023-11-11T05:25:52.893Z,14.05
2023-11-11T05:28:21.489Z,12.60
2023-11-11T05:30:49.294Z,14.10
2023-11-11T05:33:17.235Z,15.20
2023-11-11T05:35:45.114Z,14.45
2023-11-11T05:38:12.858Z,13.02
2023-11-11T05:40:41.291Z,12.65
2023-11-11T05:43:09.958Z,14.90
2023-11-11T05:45:37.764Z,13.32
2023-11-11T05:48:06.241Z,12.75
2023-11-11T05:50:34.047Z,14.25
2023-11-11T05:53:01.487Z,13.95
2023-11-11T05:55:29.458Z,15.00
2023-11-11T05:57:57.033Z,13.95
2023-11-11T06:00:24.913Z,17.17
2023-11-11T06:02:52.751Z,16.23
2023-11-11T06:05:20.295Z,15.32
2023-11-11T06:07:48.039Z,15.00
2023-11-11T06:10:19.258Z,21.08
2023-11-11T06:12:48.607Z,39.03
2023-11-11T06:15:18.583Z,37.13
2023-11-11T06:17:46.521Z,21.27
2023-11-11T06:20:14.666Z,30.60
2023-11-11T06:22:43.924Z,27.45
2023-11-11T06:25:11.836Z,41.88
2023-11-11T06:27:39.617Z,42.35
2023-11-11T06:30:10.952Z,40.70
2023-11-11T06:32:39.436Z,38.43
2023-11-11T06:35:09.815Z,43.85
2023-11-11T06:37:37.374Z,52.40
2023-11-11T06:40:05.725Z,26.27
2023-11-11T06:42:37.734Z,32.17
2023-11-11T06:45:06.614Z,24.37
2023-11-11T06:47:35.275Z,22.65
2023-11-11T06:50:03.085Z,21.20
2023-11-11T06:52:32.025Z,18.55
2023-11-11T06:54:59.883Z,16.10
2023-11-11T06:57:27.460Z,19.17
2023-11-11T06:59:55.606Z,15.18
2023-11-11T07:02:24.085Z,15.57
2023-11-11T07:04:55.192Z,16.70
2023-11-11T07:07:23.319Z,14.90
2023-11-11T07:09:52.582Z,15.93
2023-11-11T07:12:22.470Z,15.68
2023-11-11T07:14:50.678Z,14.87
2023-11-11T07:17:19.868Z,14.75
2023-11-11T07:19:47.714Z,16.12
2023-11-11T07:24:46.992Z,13.55
2023-11-11T07:27:17.695Z,17.02
2023-11-11T07:29:45.436Z,15.07
2023-11-11T07:32:13.527Z,16.45
2023-11-11T07:34:45.710Z,15.47
2023-11-11T07:37:14.105Z,16.10
2023-11-11T07:39:42.040Z,15.02
2023-11-11T07:42:09.908Z,20.10
2023-11-11T07:44:40.755Z,17.37
2023-11-11T07:47:09.095Z,21.47
2023-11-11T07:49:37.726Z,17.35
2023-11-11T07:52:05.937Z,18.30
2023-11-11T07:54:34.866Z,16.55
2023-11-11T07:57:07.858Z,15.77
2023-11-11T07:59:40.126Z,16.33
2023-11-11T08:02:08.058Z,17.83
2023-11-11T08:04:36.295Z,14.23
2023-11-11T08:07:03.927Z,14.85
2023-11-11T08:09:32.880Z,12.75
2023-11-11T08:12:00.789Z,12.50
2023-11-11T08:14:29.706Z,14.27
2023-11-11T08:16:59.190Z,14.73
2023-11-11T08:19:28.774Z,12.98
2023-11-11T08:21:56.907Z,15.52
2023-11-11T08:24:24.737Z,16.53
2023-11-11T08:26:52.571Z,17.95
2023-11-11T08:29:20.180Z,16.55
2023-11-11T08:31:48.076Z,14.82
2023-11-11T08:34:16.252Z,15.38
2023-11-11T08:36:50.671Z,15.40
2023-11-11T08:39:22.104Z,14.23
2023-11-11T08:41:50.708Z,12.75
2023-11-11T08:44:18.836Z,14.57
2023-11-11T08:46:46.978Z,15.60
2023-11-11T08:49:14.915Z,12.70
2023-11-11T08:51:42.853Z,15.00
2023-11-11T08:54:11.178Z,13.38
2023-11-11T08:56:38.945Z,12.55
2023-11-11T08:59:07.759Z,14.45
2023-11-11T09:01:35.937Z,13.13
2023-11-11T09:04:04.991Z,14.38
2023-11-11T09:06:32.977Z,13.02
2023-11-11T09:09:01.105Z,14.13
2023-11-11T09:11:29.135Z,12.40
2023-11-11T09:13:57.074Z,13.43
2023-11-11T09:16:27.683Z,12.00
2023-11-11T09:18:55.646Z,12.15
2023-11-11T09:21:23.434Z,14.60
2023-11-11T09:23:51.556Z,11.93
2023-11-11T09:26:20.846Z,15.23
2023-11-11T09:28:50.827Z,14.50
2023-11-11T09:31:19.404Z,10.70
2023-11-11T09:33:47.312Z,12.77
2023-11-11T09:36:14.849Z,11.60
2023-11-11T09:38:42.905Z,13.30
2023-11-11T09:41:13.555Z,12.40
2023-11-11T09:43:41.108Z,12.90
2023-11-11T09:46:16.349Z,11.88
2023-11-11T09:48:44.880Z,12.57
2023-11-11T09:51:14.370Z,13.60
2023-11-11T09:53:43.122Z,19.20
2023-11-11T09:57:03.032Z,19.52
2023-11-11T09:59:01.640Z,21.00
2023-11-11T10:01:30.432Z,19.42
2023-11-11T10:03:58.528Z,19.57
2023-11-11T10:06:26.571Z,20.00
2023-11-11T10:08:56.108Z,17.05
2023-11-11T10:11:24.422Z,20.52
2023-11-11T10:13:55.366Z,20.52
2023-11-11T10:16:23.482Z,21.80
2023-11-11T10:18:52.792Z,21.48
2023-11-11T10:21:24.131Z,23.08
2023-11-11T10:23:53.257Z,26.67
2023-11-11T10:26:24.020Z,24.35
2023-11-11T10:28:52.547Z,25.80
2023-11-11T10:31:23.688Z,26.08
2023-11-11T10:33:53.554Z,27.45
2023-11-11T10:36:24.432Z,30.08
2023-11-11T10:38:57.202Z,26.35
2023-11-11T10:41:25.801Z,29.90
2023-11-11T10:43:54.127Z,29.52
2023-11-11T10:46:21.752Z,25.62
2023-11-11T10:48:50.182Z,24.50
2023-11-11T10:51:19.177Z,24.70
2023-11-11T10:53:48.607Z,25.60
2023-11-11T10:56:16.723Z,28.52
2023-11-11T10:58:46.316Z,26.85
2023-11-11T11:01:14.518Z,26.70
2023-11-11T11:03:42.543Z,25.25
2023-11-11T11:06:16.132Z,24.10
2023-11-11T11:08:49.990Z,21.30
2023-11-11T11:11:45.895Z,20.08
2023-11-11T11:14:27.450Z,15.32
2023-11-11T11:16:55.407Z,14.45
2023-11-11T11:19:25.722Z,11.77
2023-11-11T11:21:54.075Z,12.40
2023-11-11T11:24:22.256Z,13.25
2023-11-11T11:26:49.785Z,13.62
2023-11-11T11:29:20.293Z,13.62
2023-11-11T11:32:08.031Z,11.97
2023-11-11T11:34:37.798Z,11.93
2023-11-11T11:37:11.186Z,14.07
2023-11-11T11:39:58.004Z,11.88
2023-11-11T11:42:28.679Z,10.75
2023-11-11T11:44:58.826Z,12.17
2023-11-11T11:47:36.778Z,12.10
2023-11-11T11:50:05.266Z,10.35
2023-11-11T11:52:34.459Z,20.88
2023-11-11T11:55:02.014Z,10.43
2023-11-11T11:57:29.521Z,11.67
2023-11-11T12:00:11.342Z,12.90
2023-11-11T12:02:41.701Z,10.80
2023-11-11T12:05:10.564Z,12.05
2023-11-11T12:07:38.953Z,13.68
2023-11-11T12:10:13.290Z,14.83
2023-11-11T12:12:44.379Z,11.12
2023-11-11T12:15:13.835Z,14.65
2023-11-11T12:17:42.124Z,14.32
2023-11-11T12:20:16.541Z,17.70
2023-11-11T12:22:48.790Z,16.27
2023-11-11T12:25:16.989Z,17.37
2023-11-11T12:27:45.343Z,17.12
2023-11-11T12:30:20.312Z,14.40
2023-11-11T12:33:05.503Z,13.48
2023-11-11T12:35:41.596Z,14.30
2023-11-11T12:38:28.890Z,15.40
2023-11-11T12:41:04.783Z,14.07
2023-11-11T12:43:36.169Z,16.95
2023-11-11T12:46:04.633Z,18.12
2023-11-11T12:48:33.517Z,16.23
2023-11-11T12:51:02.295Z,16.35
2023-11-11T12:53:43.523Z,16.08
2023-11-11T12:56:19.991Z,22.45
2023-11-11T12:58:50.844Z,15.55
2023-11-11T13:01:28.661Z,16.00
2023-11-11T13:04:05.533Z,15.95
2023-11-11T13:06:35.607Z,16.23
2023-11-11T13:09:06.129Z,15.82
2023-11-11T13:11:36.791Z,13.02
2023-11-11T13:14:09.170Z,14.90
2023-11-11T13:16:38.236Z,13.30
2023-11-11T13:19:11.260Z,11.80
2023-11-11T13:21:39.995Z,13.70
2023-11-11T13:24:09.023Z,13.13
2023-11-11T13:26:37.001Z,12.47
2023-11-11T13:31:34.141Z,12.18
2023-11-11T13:34:02.056Z,11.88
2023-11-11T13:36:35.675Z,11.65
2023-11-11T13:39:04.030Z,12.30
2023-11-11T13:41:37.470Z,14.48
2023-11-11T13:44:05.169Z,14.38
2023-11-11T13:46:33.492Z,12.57
2023-11-11T13:49:01.904Z,16.90
2023-11-11T13:51:29.896Z,12.93
2023-11-11T13:53:57.897Z,16.12
2023-11-11T13:56:26.541Z,11.30
2023-11-11T13:58:58.596Z,10.07
2023-11-11T14:01:30.437Z,10.57
2023-11-11T14:04:01.590Z,9.03
2023-11-11T14:06:33.793Z,9.05
2023-11-11T14:09:01.907Z,9.80
2023-11-11T14:11:29.986Z,14.50
2023-11-11T14:13:59.174Z,15.82
2023-11-11T14:16:28.873Z,16.07
2023-11-11T14:18:56.660Z,12.13
2023-11-11T14:21:25.216Z,12.43
2023-11-11T14:23:53.279Z,10.88
2023-11-11T14:26:21.331Z,11.57
2023-11-11T14:28:51.334Z,11.17
2023-11-11T14:31:20.107Z,10.30
2023-11-11T14:33:57.766Z,9.65
2023-11-11T14:36:37.577Z,11.63
2023-11-11T14:39:05.703Z,10.75
2023-11-11T14:41:36.589Z,10.00
2023-11-11T14:44:06.323Z,11.82
2023-11-11T14:46:36.522Z,15.07
2023-11-11T14:49:10.430Z,10.35
2023-11-11T14:51:38.703Z,13.35
2023-11-11T14:54:06.729Z,11.07
2023-11-11T14:56:36.095Z,10.93
2023-11-11T14:59:05.589Z,13.05
2023-11-11T15:01:33.813Z,9.40
2023-11-11T15:04:02.384Z,8.20
2023-11-11T15:06:32.987Z,9.53
2023-11-11T15:09:01.145Z,9.02
2023-11-11T15:11:29.197Z,9.35
2023-11-11T15:14:03.713Z,8.18
2023-11-11T15:16:33.307Z,6.25
2023-11-11T15:19:03.042Z,6.53
2023-11-11T15:21:31.257Z,7.32
2023-11-11T15:23:59.506Z,8.23
2023-11-11T15:26:27.710Z,6.75
2023-11-11T15:28:55.775Z,7.18
2023-11-11T15:31:29.974Z,8.23
2023-11-11T15:33:58.971Z,5.57
2023-11-11T15:36:27.462Z,5.18
2023-11-11T15:38:57.391Z,6.18
2023-11-11T15:41:25.810Z,9.55
2023-11-11T15:43:53.823Z,4.00
2023-11-11T15:46:22.031Z,4.62
2023-11-11T15:48:50.314Z,6.55
2023-11-11T15:51:23.527Z,4.28
2023-11-11T15:53:53.661Z,6.28
2023-11-11T15:56:21.265Z,3.83
2023-11-11T15:58:49.841Z,5.25
2023-11-11T16:01:19.838Z,3.78
2023-11-11T16:03:50.333Z,4.80
2023-11-11T16:06:17.891Z,3.12
2023-11-11T16:08:45.816Z,3.50
2023-11-11T16:11:13.826Z,3.92
2023-11-11T16:13:41.436Z,4.53
2023-11-11T16:16:09.060Z,4.62
2023-11-11T16:18:38.219Z,3.85
2023-11-11T16:21:06.224Z,4.57
2023-11-11T16:23:33.868Z,3.00
2023-11-11T16:26:02.063Z,2.50
2023-11-11T16:28:29.583Z,4.07
2023-11-11T16:30:57.249Z,4.70
2023-11-11T16:33:24.959Z,3.40
2023-11-11T16:35:54.268Z,1.95
2023-11-11T16:38:22.168Z,2.72
2023-11-11T16:40:49.622Z,2.70
2023-11-11T16:43:17.330Z,2.10
2023-11-11T16:45:45.070Z,2.43
2023-11-11T16:48:12.640Z,2.17
2023-11-11T16:50:40.246Z,1.95
2023-11-11T16:53:07.598Z,2.10
2023-11-11T16:55:35.047Z,2.42
2023-11-11T16:58:05.308Z,2.30
2023-11-11T17:00:32.748Z,1.50
2023-11-11T17:03:01.496Z,1.67
2023-11-11T17:05:29.198Z,2.62
2023-11-11T17:07:58.151Z,2.28
2023-11-11T17:10:25.783Z,1.63
2023-11-11T17:12:53.360Z,1.70
2023-11-11T17:15:20.918Z,4.72
2023-11-11T17:17:51.346Z,2.25
2023-11-11T17:20:18.762Z,1.67
2023-11-11T17:22:46.160Z,1.30
2023-11-11T17:25:13.603Z,1.27
2023-11-11T17:27:40.994Z,3.12
2023-11-11T17:30:09.487Z,2.00
2023-11-11T17:32:39.418Z,2.40
2023-11-11T17:35:07.634Z,1.40
2023-11-11T17:37:36.140Z,4.07
2023-11-11T17:40:07.296Z,3.35
2023-11-11T17:42:34.858Z,2.45
2023-11-11T17:45:02.503Z,1.90
2023-11-11T17:47:30.006Z,1.90
2023-11-11T17:49:57.931Z,3.28
2023-11-11T17:52:25.613Z,2.15
2023-11-11T17:54:53.379Z,2.25
2023-11-11T17:57:22.836Z,2.35
2023-11-11T17:59:51.153Z,1.37
2023-11-11T18:02:18.678Z,1.52
2023-11-11T18:04:47.012Z,1.40
2023-11-11T18:07:14.655Z,1.65
2023-11-11T18:09:43.616Z,1.30
2023-11-11T18:12:13.424Z,2.33
2023-11-11T18:14:41.709Z,2.22
2023-11-11T18:17:09.704Z,2.37
2023-11-11T18:19:39.455Z,1.95
2023-11-11T18:22:07.082Z,2.47
2023-11-11T18:24:35.825Z,1.80
2023-11-11T18:27:07.107Z,2.17
2023-11-11T18:29:40.626Z,2.40
2023-11-11T18:32:11.926Z,2.78
2023-11-11T18:34:40.153Z,1.85
2023-11-11T18:37:08.049Z,2.10
2023-11-11T18:39:35.612Z,2.92
2023-11-11T18:42:03.651Z,2.53
2023-11-11T18:44:32.721Z,2.20
2023-11-11T18:47:01.554Z,2.53
2023-11-11T18:49:29.420Z,3.27
2023-11-11T18:51:57.275Z,1.60
2023-11-11T18:54:24.865Z,3.60
2023-11-11T18:56:52.451Z,2.45
2023-11-11T18:59:20.552Z,1.83
2023-11-11T19:01:49.305Z,2.23
2023-11-11T19:04:20.038Z,2.75
2023-11-11T19:06:48.176Z,3.03
2023-11-11T19:09:16.020Z,1.70
2023-11-11T19:11:45.956Z,2.75
2023-11-11T19:14:14.216Z,2.20
2023-11-11T19:16:42.608Z,2.03
2023-11-11T19:19:13.009Z,2.05
2023-11-11T19:21:41.513Z,3.80
2023-11-11T19:24:14.853Z,2.83
2023-11-11T19:26:43.166Z,3.80
2023-11-11T19:29:10.900Z,2.12
2023-11-11T19:31:38.734Z,2.67
2023-11-11T19:34:06.896Z,2.80
2023-11-11T19:36:34.522Z,2.40
2023-11-11T19:39:02.193Z,2.60
2023-11-11T19:41:30.240Z,2.22
2023-11-11T19:43:58.227Z,2.03
2023-11-11T19:46:26.639Z,3.90
2023-11-11T19:48:55.210Z,2.65
2023-11-11T19:51:24.925Z,3.63
2023-11-11T19:53:58.707Z,2.65
2023-11-11T19:56:26.889Z,2.75
2023-11-11T19:58:54.862Z,2.75
2023-11-11T20:01:22.782Z,2.20
2023-11-11T20:03:51.249Z,2.10
2023-11-11T20:06:20.023Z,5.22
2023-11-11T20:08:49.586Z,2.67
2023-11-11T20:11:17.393Z,1.60
2023-11-11T20:13:47.387Z,2.35
2023-11-11T20:16:15.065Z,2.07
2023-11-11T20:18:43.022Z,2.28
2023-11-11T20:21:11.191Z,2.90
2023-11-11T20:23:38.986Z,4.55
2023-11-11T20:26:09.822Z,2.28
2023-11-11T20:28:37.813Z,3.20
2023-11-11T20:31:05.792Z,2.33
2023-11-11T20:33:34.464Z,3.37
2023-11-11T20:36:02.012Z,2.35
2023-11-11T20:38:33.127Z,3.00
2023-11-11T20:41:01.327Z,2.50
2023-11-11T20:43:29.157Z,2.42
2023-11-11T20:45:58.132Z,2.75
2023-11-11T20:48:27.544Z,2.72
2023-11-11T20:50:55.366Z,2.00
2023-11-11T20:53:22.973Z,1.93
2023-11-11T20:55:50.886Z,3.95
2023-11-11T20:58:20.411Z,5.35
2023-11-11T21:00:48.152Z,3.97
2023-11-11T21:03:16.566Z,3.85
2023-11-11T21:05:44.439Z,1.97
2023-11-11T21:08:12.353Z,2.20
2023-11-11T21:10:41.022Z,3.05
2023-11-11T21:13:08.867Z,3.12
2023-11-11T21:15:36.695Z,2.47
2023-11-11T21:18:05.567Z,3.00
2023-11-11T21:20:33.614Z,1.62
2023-11-11T21:23:01.688Z,3.87
2023-11-11T21:25:29.972Z,3.30
2023-11-11T21:27:57.776Z,4.82
2023-11-11T21:30:25.955Z,9.30
2023-11-11T21:32:54.594Z,2.72
2023-11-11T21:35:22.671Z,2.90
2023-11-11T21:37:52.534Z,3.40
2023-11-11T21:40:20.396Z,3.67
2023-11-11T21:42:49.005Z,4.33
2023-11-11T21:45:17.063Z,5.53
2023-11-11T21:47:45.364Z,3.83
2023-11-11T21:50:13.051Z,3.95
2023-11-11T21:52:40.902Z,2.83
2023-11-11T21:55:09.323Z,2.53
2023-11-11T21:57:37.936Z,2.85
2023-11-11T22:00:15.043Z,2.47
2023-11-11T22:02:44.311Z,3.03
2023-11-11T22:05:12.401Z,2.45
2023-11-11T22:07:40.509Z,3.07
2023-11-11T22:10:12.274Z,2.45
2023-11-11T22:12:40.683Z,3.15
2023-11-11T22:15:09.240Z,3.42
2023-11-11T22:17:38.090Z,4.15
2023-11-11T22:20:07.768Z,4.20
2023-11-11T22:22:41.799Z,3.97
2023-11-11T22:25:10.304Z,7.50
2023-11-11T22:27:39.107Z,2.67
2023-11-11T22:30:12.381Z,3.67
2023-11-11T22:32:43.307Z,2.77
2023-11-11T22:35:11.330Z,4.10
2023-11-11T22:37:40.140Z,4.53
2023-11-11T22:40:12.370Z,5.18
2023-11-11T22:42:41.241Z,3.30
2023-11-11T22:45:14.588Z,3.70
2023-11-11T22:47:46.182Z,3.17
2023-11-11T22:50:16.894Z,3.10
2023-11-11T22:52:45.864Z,3.80
2023-11-11T22:55:13.967Z,3.55
2023-11-11T22:57:42.998Z,2.70
2023-11-11T23:00:37.788Z,4.12
2023-11-11T23:03:09.527Z,3.47
2023-11-11T23:05:39.223Z,2.30
2023-11-11T23:08:08.156Z,3.30
2023-11-11T23:10:35.926Z,3.37
2023-11-11T23:13:04.338Z,3.45
2023-11-11T23:15:32.470Z,3.65
2023-11-11T23:18:00.408Z,3.00
2023-11-11T23:20:28.389Z,3.55
2023-11-11T23:22:58.956Z,3.27
2023-11-11T23:25:26.453Z,3.45
2023-11-11T23:27:54.008Z,5.22
2023-11-11T23:30:22.225Z,4.80
2023-11-11T23:32:49.932Z,3.97
2023-11-11T23:35:18.297Z,3.83
2023-11-11T23:37:46.399Z,2.33
2023-11-11T23:40:14.133Z,3.65
2023-11-11T23:42:42.979Z,3.58
2023-11-11T23:45:10.940Z,3.65
2023-11-11T23:47:39.346Z,3.03
2023-11-11T23:50:08.113Z,4.45
2023-11-11T23:52:36.208Z,3.37
2023-11-11T23:55:05.366Z,2.90
2023-11-11T23:57:32.940Z,3.37
